sensor_id;sensor_type;location;lat;lon;timestamp;temperature;humidity
65146;DHT22;51730;56.950;24.126;2023-04-15T00:01:27;11.00;55.50
65146;DHT22;51730;56.950;24.126;2023-04-15T00:03:55;10.80;55.00
65146;DHT22;51730;56.950;24.126;2023-04-15T00:06:22;10.80;56.00
65146;DHT22;51730;56.950;24.126;2023-04-15T00:08:49;10.80;55.90
65146;DHT22;51730;56.950;24.126;2023-04-15T00:11:16;10.80;56.30
65146;DHT22;51730;56.950;24.126;2023-04-15T00:13:45;10.70;56.00
65146;DHT22;51730;56.950;24.126;2023-04-15T00:16:14;10.70;56.40
65146;DHT22;51730;56.950;24.126;2023-04-15T00:18:46;10.70;56.40
65146;DHT22;51730;56.950;24.126;2023-04-15T00:21:17;10.80;56.00
65146;DHT22;51730;56.950;24.126;2023-04-15T00:23:47;10.70;55.70
65146;DHT22;51730;56.950;24.126;2023-04-15T00:26:18;10.70;56.50
65146;DHT22;51730;56.950;24.126;2023-04-15T00:28:47;10.60;56.50
65146;DHT22;51730;56.950;24.126;2023-04-15T00:31:16;10.70;56.20
65146;DHT22;51730;56.950;24.126;2023-04-15T00:33:57;10.70;56.30
65146;DHT22;51730;56.950;24.126;2023-04-15T00:36:33;10.70;56.00
65146;DHT22;51730;56.950;24.126;2023-04-15T00:39:04;10.60;56.10
65146;DHT22;51730;56.950;24.126;2023-04-15T00:41:36;10.60;57.10
65146;DHT22;51730;56.950;24.126;2023-04-15T00:44:07;10.60;56.40
65146;DHT22;51730;56.950;24.126;2023-04-15T00:46:37;10.50;56.50
65146;DHT22;51730;56.950;24.126;2023-04-15T00:49:05;10.50;56.10
65146;DHT22;51730;56.950;24.126;2023-04-15T00:51:34;10.60;56.60
65146;DHT22;51730;56.950;24.126;2023-04-15T00:54:06;10.50;56.20
65146;DHT22;51730;56.950;24.126;2023-04-15T00:56:34;10.50;56.00
65146;DHT22;51730;56.950;24.126;2023-04-15T00:59:04;10.50;56.10
65146;DHT22;51730;56.950;24.126;2023-04-15T01:01:33;10.40;55.70
65146;DHT22;51730;56.950;24.126;2023-04-15T01:04:02;10.50;56.20
65146;DHT22;51730;56.950;24.126;2023-04-15T01:06:31;10.50;56.20
65146;DHT22;51730;56.950;24.126;2023-04-15T01:09:01;10.50;57.10
65146;DHT22;51730;56.950;24.126;2023-04-15T01:11:29;10.50;55.80
65146;DHT22;51730;56.950;24.126;2023-04-15T01:14:02;10.50;55.60
65146;DHT22;51730;56.950;24.126;2023-04-15T01:16:35;10.50;55.20
65146;DHT22;51730;56.950;24.126;2023-04-15T01:19:08;10.50;55.80
65146;DHT22;51730;56.950;24.126;2023-04-15T01:21:36;10.50;55.80
65146;DHT22;51730;56.950;24.126;2023-04-15T01:24:07;10.50;55.80
65146;DHT22;51730;56.950;24.126;2023-04-15T01:26:38;10.50;55.60
65146;DHT22;51730;56.950;24.126;2023-04-15T01:29:10;10.50;55.50
65146;DHT22;51730;56.950;24.126;2023-04-15T01:31:37;10.50;55.40
65146;DHT22;51730;56.950;24.126;2023-04-15T01:34:06;10.40;55.20
65146;DHT22;51730;56.950;24.126;2023-04-15T01:36:37;10.40;54.60
65146;DHT22;51730;56.950;24.126;2023-04-15T01:39:06;10.40;54.90
65146;DHT22;51730;56.950;24.126;2023-04-15T01:41:35;10.40;54.40
65146;DHT22;51730;56.950;24.126;2023-04-15T01:44:09;10.30;54.50
65146;DHT22;51730;56.950;24.126;2023-04-15T01:46:35;10.40;54.10
65146;DHT22;51730;56.950;24.126;2023-04-15T01:49:02;10.40;53.90
65146;DHT22;51730;56.950;24.126;2023-04-15T01:51:29;10.40;53.50
65146;DHT22;51730;56.950;24.126;2023-04-15T01:53:56;10.40;53.50
65146;DHT22;51730;56.950;24.126;2023-04-15T01:56:23;10.30;53.20
65146;DHT22;51730;56.950;24.126;2023-04-15T01:58:50;10.30;52.90
65146;DHT22;51730;56.950;24.126;2023-04-15T02:01:17;10.30;52.60
65146;DHT22;51730;56.950;24.126;2023-04-15T02:03:47;10.30;52.60
65146;DHT22;51730;56.950;24.126;2023-04-15T02:06:15;10.30;52.60
65146;DHT22;51730;56.950;24.126;2023-04-15T02:08:44;10.30;52.20
65146;DHT22;51730;56.950;24.126;2023-04-15T02:11:11;10.30;52.30
65146;DHT22;51730;56.950;24.126;2023-04-15T02:13:38;10.40;52.10
65146;DHT22;51730;56.950;24.126;2023-04-15T02:16:13;10.30;51.60
65146;DHT22;51730;56.950;24.126;2023-04-15T02:18:44;10.30;51.80
65146;DHT22;51730;56.950;24.126;2023-04-15T02:21:12;10.30;51.80
65146;DHT22;51730;56.950;24.126;2023-04-15T02:23:39;10.30;51.70
65146;DHT22;51730;56.950;24.126;2023-04-15T02:26:06;10.30;51.30
65146;DHT22;51730;56.950;24.126;2023-04-15T02:28:35;10.30;51.30
65146;DHT22;51730;56.950;24.126;2023-04-15T02:31:05;10.30;51.20
65146;DHT22;51730;56.950;24.126;2023-04-15T02:33:37;10.30;50.90
65146;DHT22;51730;56.950;24.126;2023-04-15T02:36:05;10.30;51.00
65146;DHT22;51730;56.950;24.126;2023-04-15T02:38:35;10.30;50.90
65146;DHT22;51730;56.950;24.126;2023-04-15T02:41:02;10.30;50.30
65146;DHT22;51730;56.950;24.126;2023-04-15T02:43:28;10.20;50.30
65146;DHT22;51730;56.950;24.126;2023-04-15T02:45:56;10.20;50.60
65146;DHT22;51730;56.950;24.126;2023-04-15T02:48:23;10.20;50.50
65146;DHT22;51730;56.950;24.126;2023-04-15T02:50:50;10.20;50.10
65146;DHT22;51730;56.950;24.126;2023-04-15T02:53:17;10.10;50.30
65146;DHT22;51730;56.950;24.126;2023-04-15T02:55:45;10.10;50.10
65146;DHT22;51730;56.950;24.126;2023-04-15T02:58:12;10.10;50.10
65146;DHT22;51730;56.950;24.126;2023-04-15T03:00:39;10.20;50.20
65146;DHT22;51730;56.950;24.126;2023-04-15T03:03:05;10.10;50.20
65146;DHT22;51730;56.950;24.126;2023-04-15T03:05:33;10.10;49.90
65146;DHT22;51730;56.950;24.126;2023-04-15T03:08:00;10.10;50.20
65146;DHT22;51730;56.950;24.126;2023-04-15T03:10:27;10.00;50.20
65146;DHT22;51730;56.950;24.126;2023-04-15T03:12:54;10.00;50.30
65146;DHT22;51730;56.950;24.126;2023-04-15T03:15:21;10.10;50.30
65146;DHT22;51730;56.950;24.126;2023-04-15T03:17:48;10.00;50.70
65146;DHT22;51730;56.950;24.126;2023-04-15T03:20:15;10.10;50.80
65146;DHT22;51730;56.950;24.126;2023-04-15T03:22:42;10.10;51.20
65146;DHT22;51730;56.950;24.126;2023-04-15T03:25:10;10.10;51.00
65146;DHT22;51730;56.950;24.126;2023-04-15T03:27:37;10.00;51.20
65146;DHT22;51730;56.950;24.126;2023-04-15T03:30:05;10.00;51.40
65146;DHT22;51730;56.950;24.126;2023-04-15T03:32:33;10.00;50.80
65146;DHT22;51730;56.950;24.126;2023-04-15T03:35:00;10.00;50.80
65146;DHT22;51730;56.950;24.126;2023-04-15T03:37:29;9.90;50.40
65146;DHT22;51730;56.950;24.126;2023-04-15T03:39:56;10.00;50.20
65146;DHT22;51730;56.950;24.126;2023-04-15T03:42:23;10.00;50.50
65146;DHT22;51730;56.950;24.126;2023-04-15T03:44:51;10.00;50.50
65146;DHT22;51730;56.950;24.126;2023-04-15T03:47:19;9.90;50.50
65146;DHT22;51730;56.950;24.126;2023-04-15T03:49:46;10.00;50.70
65146;DHT22;51730;56.950;24.126;2023-04-15T03:52:13;10.00;50.20
65146;DHT22;51730;56.950;24.126;2023-04-15T03:54:40;10.00;50.30
65146;DHT22;51730;56.950;24.126;2023-04-15T03:57:07;10.00;50.20
65146;DHT22;51730;56.950;24.126;2023-04-15T03:59:34;10.00;50.20
65146;DHT22;51730;56.950;24.126;2023-04-15T04:02:03;10.00;50.20
65146;DHT22;51730;56.950;24.126;2023-04-15T04:04:32;10.00;50.20
65146;DHT22;51730;56.950;24.126;2023-04-15T04:07:06;10.00;50.30
65146;DHT22;51730;56.950;24.126;2023-04-15T04:09:39;10.00;51.80
65146;DHT22;51730;56.950;24.126;2023-04-15T04:12:07;10.00;50.70
65146;DHT22;51730;56.950;24.126;2023-04-15T04:14:35;10.00;50.30
65146;DHT22;51730;56.950;24.126;2023-04-15T04:17:01;9.90;50.30
65146;DHT22;51730;56.950;24.126;2023-04-15T04:19:29;9.90;50.80
65146;DHT22;51730;56.950;24.126;2023-04-15T04:21:56;10.00;51.80
65146;DHT22;51730;56.950;24.126;2023-04-15T04:24:24;9.90;50.40
65146;DHT22;51730;56.950;24.126;2023-04-15T04:26:52;9.90;50.40
65146;DHT22;51730;56.950;24.126;2023-04-15T04:29:20;9.80;49.80
65146;DHT22;51730;56.950;24.126;2023-04-15T04:31:46;9.90;50.00
65146;DHT22;51730;56.950;24.126;2023-04-15T04:34:14;9.80;51.00
65146;DHT22;51730;56.950;24.126;2023-04-15T04:36:41;9.80;50.00
65146;DHT22;51730;56.950;24.126;2023-04-15T04:39:08;9.90;49.80
65146;DHT22;51730;56.950;24.126;2023-04-15T04:41:35;9.80;50.30
65146;DHT22;51730;56.950;24.126;2023-04-15T04:44:02;9.80;49.80
65146;DHT22;51730;56.950;24.126;2023-04-15T04:46:29;9.80;51.70
65146;DHT22;51730;56.950;24.126;2023-04-15T04:48:56;9.80;50.50
65146;DHT22;51730;56.950;24.126;2023-04-15T04:51:23;9.90;49.70
65146;DHT22;51730;56.950;24.126;2023-04-15T04:53:50;9.90;50.50
65146;DHT22;51730;56.950;24.126;2023-04-15T04:56:18;9.80;50.50
65146;DHT22;51730;56.950;24.126;2023-04-15T04:58:45;9.90;49.50
65146;DHT22;51730;56.950;24.126;2023-04-15T05:01:14;9.90;50.70
65146;DHT22;51730;56.950;24.126;2023-04-15T05:03:41;10.00;50.50
65146;DHT22;51730;56.950;24.126;2023-04-15T05:06:08;10.00;49.30
65146;DHT22;51730;56.950;24.126;2023-04-15T05:08:36;10.00;49.40
65146;DHT22;51730;56.950;24.126;2023-04-15T05:11:05;9.90;49.50
65146;DHT22;51730;56.950;24.126;2023-04-15T05:13:33;10.00;49.90
65146;DHT22;51730;56.950;24.126;2023-04-15T05:16:00;10.10;50.90
65146;DHT22;51730;56.950;24.126;2023-04-15T05:18:27;10.00;49.50
65146;DHT22;51730;56.950;24.126;2023-04-15T05:20:54;9.90;49.30
65146;DHT22;51730;56.950;24.126;2023-04-15T05:23:21;10.10;50.50
65146;DHT22;51730;56.950;24.126;2023-04-15T05:25:49;10.10;50.10
65146;DHT22;51730;56.950;24.126;2023-04-15T05:28:15;10.20;50.60
65146;DHT22;51730;56.950;24.126;2023-04-15T05:30:42;10.30;48.80
65146;DHT22;51730;56.950;24.126;2023-04-15T05:33:09;10.30;49.10
65146;DHT22;51730;56.950;24.126;2023-04-15T05:35:36;10.20;50.00
65146;DHT22;51730;56.950;24.126;2023-04-15T05:38:03;10.20;49.30
65146;DHT22;51730;56.950;24.126;2023-04-15T05:40:30;10.10;48.70
65146;DHT22;51730;56.950;24.126;2023-04-15T05:42:57;10.20;48.90
65146;DHT22;51730;56.950;24.126;2023-04-15T05:45:24;10.20;49.90
65146;DHT22;51730;56.950;24.126;2023-04-15T05:47:50;10.20;49.40
65146;DHT22;51730;56.950;24.126;2023-04-15T05:50:20;10.20;48.70
65146;DHT22;51730;56.950;24.126;2023-04-15T05:52:50;10.10;49.10
65146;DHT22;51730;56.950;24.126;2023-04-15T05:55:17;10.10;50.40
65146;DHT22;51730;56.950;24.126;2023-04-15T05:57:43;10.20;49.50
65146;DHT22;51730;56.950;24.126;2023-04-15T06:00:10;10.20;48.50
65146;DHT22;51730;56.950;24.126;2023-04-15T06:02:37;10.20;49.40
65146;DHT22;51730;56.950;24.126;2023-04-15T06:05:05;10.10;49.00
65146;DHT22;51730;56.950;24.126;2023-04-15T06:07:36;10.10;49.70
65146;DHT22;51730;56.950;24.126;2023-04-15T06:10:03;10.10;49.10
65146;DHT22;51730;56.950;24.126;2023-04-15T06:12:30;10.10;50.10
65146;DHT22;51730;56.950;24.126;2023-04-15T06:14:57;10.20;49.00
65146;DHT22;51730;56.950;24.126;2023-04-15T06:17:25;10.50;48.80
65146;DHT22;51730;56.950;24.126;2023-04-15T06:19:52;10.60;48.60
65146;DHT22;51730;56.950;24.126;2023-04-15T06:22:25;10.70;49.00
65146;DHT22;51730;56.950;24.126;2023-04-15T06:24:52;10.80;48.20
65146;DHT22;51730;56.950;24.126;2023-04-15T06:27:20;10.80;48.70
65146;DHT22;51730;56.950;24.126;2023-04-15T06:29:48;11.00;47.80
65146;DHT22;51730;56.950;24.126;2023-04-15T06:32:18;10.80;47.80
65146;DHT22;51730;56.950;24.126;2023-04-15T06:35:05;10.80;48.00
65146;DHT22;51730;56.950;24.126;2023-04-15T06:37:32;11.00;47.60
65146;DHT22;51730;56.950;24.126;2023-04-15T06:39:58;11.10;47.30
65146;DHT22;51730;56.950;24.126;2023-04-15T06:42:26;11.20;47.90
65146;DHT22;51730;56.950;24.126;2023-04-15T06:44:54;11.30;47.50
65146;DHT22;51730;56.950;24.126;2023-04-15T06:47:22;11.30;47.10
65146;DHT22;51730;56.950;24.126;2023-04-15T06:49:50;11.20;46.70
65146;DHT22;51730;56.950;24.126;2023-04-15T06:52:17;11.30;48.70
65146;DHT22;51730;56.950;24.126;2023-04-15T06:54:44;11.30;46.90
65146;DHT22;51730;56.950;24.126;2023-04-15T06:57:11;11.40;46.80
65146;DHT22;51730;56.950;24.126;2023-04-15T06:59:38;11.50;46.60
65146;DHT22;51730;56.950;24.126;2023-04-15T07:02:05;11.60;46.50
65146;DHT22;51730;56.950;24.126;2023-04-15T07:04:32;11.50;47.00
65146;DHT22;51730;56.950;24.126;2023-04-15T07:06:59;11.40;46.80
65146;DHT22;51730;56.950;24.126;2023-04-15T07:09:28;11.40;46.30
65146;DHT22;51730;56.950;24.126;2023-04-15T07:11:55;11.50;47.20
65146;DHT22;51730;56.950;24.126;2023-04-15T07:14:22;11.50;46.30
65146;DHT22;51730;56.950;24.126;2023-04-15T07:16:48;11.60;46.40
65146;DHT22;51730;56.950;24.126;2023-04-15T07:19:15;11.80;46.20
65146;DHT22;51730;56.950;24.126;2023-04-15T07:21:42;11.80;46.40
65146;DHT22;51730;56.950;24.126;2023-04-15T07:24:11;11.70;45.30
65146;DHT22;51730;56.950;24.126;2023-04-15T07:26:38;11.70;46.00
65146;DHT22;51730;56.950;24.126;2023-04-15T07:29:05;11.70;46.20
65146;DHT22;51730;56.950;24.126;2023-04-15T07:31:34;11.70;47.50
65146;DHT22;51730;56.950;24.126;2023-04-15T07:34:02;12.00;45.90
65146;DHT22;51730;56.950;24.126;2023-04-15T07:36:30;11.90;46.50
65146;DHT22;51730;56.950;24.126;2023-04-15T07:38:59;12.00;47.00
65146;DHT22;51730;56.950;24.126;2023-04-15T07:41:28;11.90;45.50
65146;DHT22;51730;56.950;24.126;2023-04-15T07:43:58;11.80;45.90
65146;DHT22;51730;56.950;24.126;2023-04-15T07:46:27;12.00;46.00
65146;DHT22;51730;56.950;24.126;2023-04-15T07:48:54;11.80;47.40
65146;DHT22;51730;56.950;24.126;2023-04-15T07:51:21;11.90;47.70
65146;DHT22;51730;56.950;24.126;2023-04-15T07:53:49;11.90;46.10
65146;DHT22;51730;56.950;24.126;2023-04-15T07:56:16;11.90;46.20
65146;DHT22;51730;56.950;24.126;2023-04-15T07:58:43;11.90;46.20
65146;DHT22;51730;56.950;24.126;2023-04-15T08:01:11;12.00;46.00
65146;DHT22;51730;56.950;24.126;2023-04-15T08:03:40;12.20;45.80
65146;DHT22;51730;56.950;24.126;2023-04-15T08:06:07;12.30;45.90
65146;DHT22;51730;56.950;24.126;2023-04-15T08:08:35;12.30;45.40
65146;DHT22;51730;56.950;24.126;2023-04-15T08:11:02;12.60;45.90
65146;DHT22;51730;56.950;24.126;2023-04-15T08:13:29;12.70;45.40
65146;DHT22;51730;56.950;24.126;2023-04-15T08:18:44;12.70;45.90
65146;DHT22;51730;56.950;24.126;2023-04-15T08:21:15;12.80;45.70
65146;DHT22;51730;56.950;24.126;2023-04-15T08:23:42;12.80;44.90
65146;DHT22;51730;56.950;24.126;2023-04-15T08:26:11;12.80;45.00
65146;DHT22;51730;56.950;24.126;2023-04-15T08:28:41;12.90;45.60
65146;DHT22;51730;56.950;24.126;2023-04-15T08:31:16;12.90;44.70
65146;DHT22;51730;56.950;24.126;2023-04-15T08:33:43;12.80;45.20
65146;DHT22;51730;56.950;24.126;2023-04-15T08:36:11;13.00;45.30
65146;DHT22;51730;56.950;24.126;2023-04-15T08:38:48;12.80;45.30
65146;DHT22;51730;56.950;24.126;2023-04-15T08:41:21;12.70;45.60
65146;DHT22;51730;56.950;24.126;2023-04-15T08:43:57;12.60;46.10
65146;DHT22;51730;56.950;24.126;2023-04-15T08:46:25;12.60;46.20
65146;DHT22;51730;56.950;24.126;2023-04-15T08:48:53;12.70;45.90
65146;DHT22;51730;56.950;24.126;2023-04-15T08:51:23;12.60;46.30
65146;DHT22;51730;56.950;24.126;2023-04-15T08:53:52;12.60;46.20
65146;DHT22;51730;56.950;24.126;2023-04-15T08:56:19;12.70;46.20
65146;DHT22;51730;56.950;24.126;2023-04-15T08:58:49;12.60;46.40
65146;DHT22;51730;56.950;24.126;2023-04-15T09:01:16;12.70;46.80
65146;DHT22;51730;56.950;24.126;2023-04-15T09:03:44;12.80;47.00
65146;DHT22;51730;56.950;24.126;2023-04-15T09:06:11;12.90;46.60
65146;DHT22;51730;56.950;24.126;2023-04-15T09:08:38;12.70;46.50
65146;DHT22;51730;56.950;24.126;2023-04-15T09:11:07;12.80;46.80
65146;DHT22;51730;56.950;24.126;2023-04-15T09:13:38;12.80;46.60
65146;DHT22;51730;56.950;24.126;2023-04-15T09:16:05;13.20;46.80
65146;DHT22;51730;56.950;24.126;2023-04-15T09:18:33;13.40;45.80
65146;DHT22;51730;56.950;24.126;2023-04-15T09:21:09;13.40;46.10
65146;DHT22;51730;56.950;24.126;2023-04-15T09:23:37;13.60;45.70
65146;DHT22;51730;56.950;24.126;2023-04-15T09:26:05;13.60;45.20
65146;DHT22;51730;56.950;24.126;2023-04-15T09:28:40;13.60;45.30
65146;DHT22;51730;56.950;24.126;2023-04-15T09:31:07;13.70;45.20
65146;DHT22;51730;56.950;24.126;2023-04-15T09:33:35;13.60;45.60
65146;DHT22;51730;56.950;24.126;2023-04-15T09:36:19;13.80;45.10
65146;DHT22;51730;56.950;24.126;2023-04-15T09:38:55;13.80;44.70
65146;DHT22;51730;56.950;24.126;2023-04-15T09:41:23;13.80;45.10
65146;DHT22;51730;56.950;24.126;2023-04-15T09:43:50;14.10;44.30
65146;DHT22;51730;56.950;24.126;2023-04-15T09:46:17;14.00;44.30
65146;DHT22;51730;56.950;24.126;2023-04-15T09:49:05;14.10;44.10
65146;DHT22;51730;56.950;24.126;2023-04-15T09:51:33;14.10;44.60
65146;DHT22;51730;56.950;24.126;2023-04-15T09:54:01;14.40;43.80
65146;DHT22;51730;56.950;24.126;2023-04-15T09:56:36;14.30;44.00
65146;DHT22;51730;56.950;24.126;2023-04-15T09:59:07;14.60;43.80
65146;DHT22;51730;56.950;24.126;2023-04-15T10:01:35;14.70;43.40
65146;DHT22;51730;56.950;24.126;2023-04-15T10:04:10;14.50;43.50
65146;DHT22;51730;56.950;24.126;2023-04-15T10:06:39;14.80;44.00
65146;DHT22;51730;56.950;24.126;2023-04-15T10:09:08;14.90;42.90
65146;DHT22;51730;56.950;24.126;2023-04-15T10:11:35;15.10;42.20
65146;DHT22;51730;56.950;24.126;2023-04-15T10:14:02;15.30;42.40
65146;DHT22;51730;56.950;24.126;2023-04-15T10:16:30;15.40;41.70
65146;DHT22;51730;56.950;24.126;2023-04-15T10:18:58;15.60;42.00
65146;DHT22;51730;56.950;24.126;2023-04-15T10:21:29;15.60;40.70
65146;DHT22;51730;56.950;24.126;2023-04-15T10:23:56;15.60;41.00
65146;DHT22;51730;56.950;24.126;2023-04-15T10:26:23;15.40;42.10
65146;DHT22;51730;56.950;24.126;2023-04-15T10:28:59;15.30;41.60
65146;DHT22;51730;56.950;24.126;2023-04-15T10:31:37;15.20;41.60
65146;DHT22;51730;56.950;24.126;2023-04-15T10:34:09;15.20;42.00
65146;DHT22;51730;56.950;24.126;2023-04-15T10:36:54;15.40;41.60
65146;DHT22;51730;56.950;24.126;2023-04-15T10:39:47;15.40;41.90
65146;DHT22;51730;56.950;24.126;2023-04-15T10:42:18;15.70;41.10
65146;DHT22;51730;56.950;24.126;2023-04-15T10:45:16;15.90;40.70
65146;DHT22;51730;56.950;24.126;2023-04-15T10:48:14;16.00;40.30
65146;DHT22;51730;56.950;24.126;2023-04-15T10:51:06;16.10;40.40
65146;DHT22;51730;56.950;24.126;2023-04-15T10:53:34;16.10;40.40
65146;DHT22;51730;56.950;24.126;2023-04-15T10:56:03;16.00;40.10
65146;DHT22;51730;56.950;24.126;2023-04-15T10:58:40;15.90;40.30
65146;DHT22;51730;56.950;24.126;2023-04-15T11:01:07;16.10;40.20
65146;DHT22;51730;56.950;24.126;2023-04-15T11:03:38;15.90;40.40
65146;DHT22;51730;56.950;24.126;2023-04-15T11:06:05;15.90;40.50
65146;DHT22;51730;56.950;24.126;2023-04-15T11:11:18;16.00;40.90
65146;DHT22;51730;56.950;24.126;2023-04-15T11:13:48;16.50;40.00
65146;DHT22;51730;56.950;24.126;2023-04-15T11:16:17;16.30;39.80
65146;DHT22;51730;56.950;24.126;2023-04-15T11:18:53;16.20;40.30
65146;DHT22;51730;56.950;24.126;2023-04-15T11:21:23;16.00;40.40
65146;DHT22;51730;56.950;24.126;2023-04-15T11:23:50;15.90;41.10
65146;DHT22;51730;56.950;24.126;2023-04-15T11:26:17;15.70;40.60
65146;DHT22;51730;56.950;24.126;2023-04-15T11:28:44;15.70;41.20
65146;DHT22;51730;56.950;24.126;2023-04-15T11:31:12;15.80;41.50
65146;DHT22;51730;56.950;24.126;2023-04-15T11:33:46;16.00;40.70
65146;DHT22;51730;56.950;24.126;2023-04-15T11:36:13;16.10;41.10
65146;DHT22;51730;56.950;24.126;2023-04-15T11:38:43;16.20;41.00
65146;DHT22;51730;56.950;24.126;2023-04-15T11:41:11;16.20;40.40
65146;DHT22;51730;56.950;24.126;2023-04-15T11:43:38;16.40;40.20
65146;DHT22;51730;56.950;24.126;2023-04-15T11:46:05;16.50;40.10
65146;DHT22;51730;56.950;24.126;2023-04-15T11:48:32;16.50;39.90
65146;DHT22;51730;56.950;24.126;2023-04-15T11:51:00;16.30;40.00
65146;DHT22;51730;56.950;24.126;2023-04-15T11:53:49;16.30;39.90
65146;DHT22;51730;56.950;24.126;2023-04-15T11:58:44;16.30;40.10
65146;DHT22;51730;56.950;24.126;2023-04-15T12:01:12;16.50;39.60
65146;DHT22;51730;56.950;24.126;2023-04-15T12:03:43;16.50;39.60
65146;DHT22;51730;56.950;24.126;2023-04-15T12:11:15;16.60;39.60
65146;DHT22;51730;56.950;24.126;2023-04-15T12:13:48;16.60;39.40
65146;DHT22;51730;56.950;24.126;2023-04-15T12:16:16;16.60;39.50
65146;DHT22;51730;56.950;24.126;2023-04-15T12:18:44;16.70;39.30
65146;DHT22;51730;56.950;24.126;2023-04-15T12:21:11;16.80;39.40
65146;DHT22;51730;56.950;24.126;2023-04-15T12:23:38;16.90;38.70
65146;DHT22;51730;56.950;24.126;2023-04-15T12:26:05;16.70;39.30
65146;DHT22;51730;56.950;24.126;2023-04-15T12:28:33;16.90;39.00
65146;DHT22;51730;56.950;24.126;2023-04-15T12:31:06;16.80;39.30
65146;DHT22;51730;56.950;24.126;2023-04-15T12:33:34;16.90;40.90
65146;DHT22;51730;56.950;24.126;2023-04-15T12:36:02;16.70;38.80
65146;DHT22;51730;56.950;24.126;2023-04-15T12:38:29;16.60;39.30
65146;DHT22;51730;56.950;24.126;2023-04-15T12:40:57;16.90;39.50
65146;DHT22;51730;56.950;24.126;2023-04-15T12:43:24;17.10;39.60
65146;DHT22;51730;56.950;24.126;2023-04-15T12:45:51;17.00;38.60
65146;DHT22;51730;56.950;24.126;2023-04-15T12:48:18;17.00;38.70
65146;DHT22;51730;56.950;24.126;2023-04-15T12:50:44;16.70;39.30
65146;DHT22;51730;56.950;24.126;2023-04-15T12:53:11;16.70;39.60
65146;DHT22;51730;56.950;24.126;2023-04-15T12:55:41;16.80;39.60
65146;DHT22;51730;56.950;24.126;2023-04-15T12:58:08;16.90;38.80
65146;DHT22;51730;56.950;24.126;2023-04-15T13:00:37;16.80;39.20
65146;DHT22;51730;56.950;24.126;2023-04-15T13:03:04;16.80;39.50
65146;DHT22;51730;56.950;24.126;2023-04-15T13:05:32;16.80;39.60
65146;DHT22;51730;56.950;24.126;2023-04-15T13:07:59;16.90;39.20
65146;DHT22;51730;56.950;24.126;2023-04-15T13:10:26;16.80;40.20
65146;DHT22;51730;56.950;24.126;2023-04-15T13:12:53;16.80;39.00
65146;DHT22;51730;56.950;24.126;2023-04-15T13:15:22;16.70;39.50
65146;DHT22;51730;56.950;24.126;2023-04-15T13:17:49;16.60;39.60
65146;DHT22;51730;56.950;24.126;2023-04-15T13:20:16;16.60;39.50
65146;DHT22;51730;56.950;24.126;2023-04-15T13:22:43;16.70;39.30
65146;DHT22;51730;56.950;24.126;2023-04-15T13:25:09;16.80;39.50
65146;DHT22;51730;56.950;24.126;2023-04-15T13:27:37;17.00;39.00
65146;DHT22;51730;56.950;24.126;2023-04-15T13:30:04;17.00;39.00
65146;DHT22;51730;56.950;24.126;2023-04-15T13:32:31;17.00;39.40
65146;DHT22;51730;56.950;24.126;2023-04-15T13:34:59;17.10;39.00
65146;DHT22;51730;56.950;24.126;2023-04-15T13:37:26;16.90;38.70
65146;DHT22;51730;56.950;24.126;2023-04-15T13:39:53;16.80;38.80
65146;DHT22;51730;56.950;24.126;2023-04-15T13:42:47;16.70;38.80
65146;DHT22;51730;56.950;24.126;2023-04-15T13:45:14;16.50;39.10
65146;DHT22;51730;56.950;24.126;2023-04-15T13:47:41;16.60;39.60
65146;DHT22;51730;56.950;24.126;2023-04-15T13:50:08;16.70;39.10
65146;DHT22;51730;56.950;24.126;2023-04-15T13:52:36;16.60;38.90
65146;DHT22;51730;56.950;24.126;2023-04-15T13:55:03;16.40;39.10
65146;DHT22;51730;56.950;24.126;2023-04-15T13:57:45;16.30;39.90
65146;DHT22;51730;56.950;24.126;2023-04-15T14:00:12;16.20;39.70
65146;DHT22;51730;56.950;24.126;2023-04-15T14:02:39;16.30;39.50
65146;DHT22;51730;56.950;24.126;2023-04-15T14:05:08;16.30;39.90
65146;DHT22;51730;56.950;24.126;2023-04-15T14:07:36;16.20;40.10
65146;DHT22;51730;56.950;24.126;2023-04-15T14:10:03;16.20;40.20
65146;DHT22;51730;56.950;24.126;2023-04-15T14:12:30;16.20;40.00
65146;DHT22;51730;56.950;24.126;2023-04-15T14:14:56;16.50;41.40
65146;DHT22;51730;56.950;24.126;2023-04-15T14:17:24;16.30;40.50
65146;DHT22;51730;56.950;24.126;2023-04-15T14:19:54;16.50;38.90
65146;DHT22;51730;56.950;24.126;2023-04-15T14:22:21;16.30;38.60
65146;DHT22;51730;56.950;24.126;2023-04-15T14:24:48;16.30;38.60
65146;DHT22;51730;56.950;24.126;2023-04-15T14:27:15;16.40;38.50
65146;DHT22;51730;56.950;24.126;2023-04-15T14:29:42;16.30;37.90
65146;DHT22;51730;56.950;24.126;2023-04-15T14:32:11;16.40;38.50
65146;DHT22;51730;56.950;24.126;2023-04-15T14:34:40;16.30;38.60
65146;DHT22;51730;56.950;24.126;2023-04-15T14:37:06;16.40;38.10
65146;DHT22;51730;56.950;24.126;2023-04-15T14:39:33;16.40;37.80
65146;DHT22;51730;56.950;24.126;2023-04-15T14:42:00;16.40;38.30
65146;DHT22;51730;56.950;24.126;2023-04-15T14:44:28;16.40;38.60
65146;DHT22;51730;56.950;24.126;2023-04-15T14:47:01;16.60;38.60
65146;DHT22;51730;56.950;24.126;2023-04-15T14:49:28;16.50;37.80
65146;DHT22;51730;56.950;24.126;2023-04-15T14:51:56;16.50;38.00
65146;DHT22;51730;56.950;24.126;2023-04-15T14:54:23;16.40;39.10
65146;DHT22;51730;56.950;24.126;2023-04-15T14:56:49;16.40;37.60
65146;DHT22;51730;56.950;24.126;2023-04-15T14:59:16;16.70;38.20
65146;DHT22;51730;56.950;24.126;2023-04-15T15:01:43;16.60;37.90
65146;DHT22;51730;56.950;24.126;2023-04-15T15:04:10;16.50;38.30
65146;DHT22;51730;56.950;24.126;2023-04-15T15:06:38;16.50;37.20
65146;DHT22;51730;56.950;24.126;2023-04-15T15:09:05;16.60;36.90
65146;DHT22;51730;56.950;24.126;2023-04-15T15:11:32;16.60;36.80
65146;DHT22;51730;56.950;24.126;2023-04-15T15:13:59;16.60;36.10
65146;DHT22;51730;56.950;24.126;2023-04-15T15:16:26;16.40;36.00
65146;DHT22;51730;56.950;24.126;2023-04-15T15:18:53;16.20;36.00
65146;DHT22;51730;56.950;24.126;2023-04-15T15:21:20;16.20;36.30
65146;DHT22;51730;56.950;24.126;2023-04-15T15:23:47;15.90;36.30
65146;DHT22;51730;56.950;24.126;2023-04-15T15:26:15;15.80;37.20
65146;DHT22;51730;56.950;24.126;2023-04-15T15:28:42;15.90;36.40
65146;DHT22;51730;56.950;24.126;2023-04-15T15:31:11;15.70;36.40
65146;DHT22;51730;56.950;24.126;2023-04-15T15:33:38;15.80;36.10
65146;DHT22;51730;56.950;24.126;2023-04-15T15:36:04;16.00;36.20
65146;DHT22;51730;56.950;24.126;2023-04-15T15:38:31;15.70;36.20
65146;DHT22;51730;56.950;24.126;2023-04-15T15:41:01;15.60;36.80